Latest Weather Observations for Larapuna (Eddystone Point)

IDT60801

Issued at 12:35 pm EDT Wednesday 22 October 2014 (issued every 30 minutes, with the page automatically refreshed every 10 minutes)

About weather observations | Map of weather stations | Latest weather observations for TAS | Other Formats
Station Details ID: 092045 Name: LARAPUNA (EDDYSTONE POINT) Lat: -40.99 Lon: 148.35 Height: 19.7 m
Data from the previous 72 hours. | See also: Recent months at Larapuna (Eddystone Point)
Date/Time
EDT
Temp
°C
App
Temp
°C
Dew
Point
Rel
Hum
%
Delta-T
°C
Wind Press
QNH
hPa
Press
MSL
hPa
Rain
since 9 am
mm
Dir
 
Spd
km/h
Gust
km/h
Spd
kts
Gust
kts
22/12:30pm 18.1 15.6 13.4 74 2.7 N 19 22 10 12 1019.2 1019.2 0.0
22/12:00pm 18.5 16.2 14.2 76 2.5 N 19 22 10 12 1019.9 1019.9 0.0
22/11:30am 17.6 15.0 13.3 76 2.4 N 19 24 10 13 1020.4 1020.4 0.0
22/11:00am 17.6 15.9 13.7 78 2.2 N 15 19 8 10 1021.0 1021.0 0.0
22/10:30am 17.4 15.3 13.5 78 2.2 N 17 20 9 11 1021.1 1021.1 0.0
22/10:00am 17.1 14.6 13.6 80 2.0 N 19 20 10 11 1021.7 1021.7 0.0
22/09:30am 16.2 13.6 13.1 82 1.7 NNE 19 22 10 12 1021.9 1021.9 0.0
22/09:00am 15.3 12.2 12.2 82 1.7 NNE 20 22 11 12 1022.2 1022.2 0.0
22/08:30am 14.8 10.9 12.1 84 1.5 NNE 24 28 13 15 1022.3 1022.3 0.0
22/08:00am 14.7 10.7 11.8 83 1.6 NNE 24 28 13 15 1022.6 1022.6 0.0
22/07:30am 14.5 10.9 11.8 84 1.5 NNE 22 26 12 14 1022.8 1022.8 0.0
22/07:00am 14.3 11.0 11.6 84 1.4 NNE 20 24 11 13 1023.2 1023.2 0.0
22/06:30am 14.1 10.7 11.4 84 1.4 NNE 20 26 11 14 1023.5 1023.5 0.0
22/06:00am 14.1 10.3 11.3 83 1.5 NNE 22 26 12 14 1023.5 1023.5 0.0
22/05:30am 14.1 10.7 11.1 82 1.6 NNE 20 24 11 13 1023.7 1023.7 0.0
22/05:00am 14.0 10.5 10.8 81 1.7 NNE 20 24 11 13 1024.1 1024.1 0.0
22/04:30am 14.0 9.7 10.6 80 1.8 N 24 28 13 15 1024.4 1024.4 0.0
22/04:00am 14.0 9.5 10.0 77 2.1 N 24 30 13 16 1025.0 1025.0 0.0
22/03:30am 14.0 9.1 9.8 76 2.2 N 26 32 14 17 1025.3 1025.3 0.0
22/03:00am 14.0 9.3 9.2 73 2.4 N 24 32 13 17 1025.9 1025.9 0.0
22/02:30am 14.0 9.3 9.4 74 2.4 N 24 35 13 19 1026.4 1026.4 0.0
22/02:00am 14.0 7.0 8.6 70 2.7 NNE 35 44 19 24 1026.4 1026.4 0.0
22/01:30am 14.0 9.0 9.6 75 2.3 N 26 32 14 17 1027.2 1027.2 0.0
22/01:00am 13.9 8.1 9.5 75 2.2 N 30 35 16 19 1027.6 1027.6 0.0
22/12:30am 14.2 9.6 9.8 75 2.3 N 24 32 13 17 1028.2 1028.3 0.0
22/12:00am 14.2 8.7 9.2 72 2.5 N 28 32 15 17 1028.7 1028.8 0.0
 
Date/Time
EDT
Temp
°C
App
Temp
°C
Dew
Point
Rel
Hum
%
Delta-T
°C
Wind Press
QNH
hPa
Press
MSL
hPa
Rain
since 9 am
mm
Dir
 
Spd
km/h
Gust
km/h
Spd
kts
Gust
kts
21/11:30pm 14.2 8.2 8.8 70 2.7 N 30 35 16 19 1029.1 1029.2 0.0
21/11:00pm 14.3 8.8 9.1 71 2.6 NNE 28 32 15 17 1029.3 1029.4 0.0
21/10:30pm 14.0 8.6 8.2 68 2.9 NNE 26 32 14 17 1029.8 1029.9 0.0
21/10:00pm 14.1 7.7 8.5 69 2.8 NNE 32 37 17 20 1029.7 1029.8 0.0
21/09:30pm 14.0 7.3 7.3 64 3.3 NNE 32 41 17 22 1030.1 1030.2 0.0
21/09:00pm 13.9 8.0 7.7 66 3.0 NNE 28 35 15 19 1030.1 1030.2 0.0
21/08:30pm 14.1 7.6 8.1 67 3.0 NNE 32 37 17 20 1030.0 1030.1 0.0
21/08:00pm 14.1 9.6 8.7 70 2.7 NNE 22 28 12 15 1030.2 1030.3 0.0
21/07:30pm 13.9 10.3 8.3 69 2.8 NNE 17 20 9 11 1030.2 1030.3 0.0
21/07:00pm 13.9 8.7 7.2 64 3.2 NNE 24 32 13 17 1030.1 1030.2 0.0
21/06:30pm 14.0 9.2 7.3 64 3.3 NNE 22 28 12 15 1030.2 1030.3 0.0
21/06:00pm 14.1 8.4 6.9 62 3.5 NNE 26 28 14 15 1030.3 1030.4 0.0
21/05:30pm 14.4 9.4 7.9 65 3.2 NNE 24 28 13 15 1030.5 1030.6 0.0
21/05:00pm 14.7 9.4 8.4 66 3.1 N 26 30 14 16 1030.6 1030.7 0.0
21/04:30pm 15.1 10.5 9.5 69 2.9 NNE 24 30 13 16 1030.8 1030.9 0.0
21/04:00pm 15.4 10.1 8.6 64 3.4 NE 26 30 14 16 1031.1 1031.2 0.0
21/03:30pm 15.7 11.5 8.4 62 3.7 NE 20 26 11 14 1031.7 1031.7 0.0
21/03:00pm 15.9 11.4 8.4 61 3.8 NE 22 24 12 13 1032.0 1032.0 0.0
21/02:30pm 17.4 14.5 8.3 55 4.7 E 13 15 7 8 1032.4 1032.4 0.0
21/02:00pm 17.2 13.9 8.1 55 4.6 ENE 15 19 8 10 1032.9 1032.9 0.0
21/01:30pm 17.1 13.8 8.0 55 4.6 NE 15 20 8 11 1033.3 1033.3 0.0
21/01:00pm 16.3 13.3 7.5 56 4.4 NE 13 19 7 10 1033.5 1033.5 0.0
21/12:30pm 16.3 12.7 6.7 53 4.7 NE 15 19 8 10 1033.5 1033.5 0.0
21/12:00pm 16.4 12.0 6.5 52 4.8 NE 19 20 10 11 1033.9 1033.9 0.0
21/11:30am 16.6 13.1 7.0 53 4.8 ENE 15 22 8 12 1034.2 1034.2 0.0
21/11:00am 14.8 10.8 6.6 58 3.9 NE 17 22 9 12 1034.7 1034.7 0.0
21/10:30am 14.6 11.5 7.2 61 3.6 ENE 13 17 7 9 1034.8 1034.8 0.0
21/10:00am 15.1 11.1 6.7 57 4.1 NE 17 20 9 11 1034.8 1034.8 0.0
21/09:30am 15.7 12.4 6.4 54 4.5 NE 13 17 7 9 1034.8 1034.8 0.0
21/09:00am 14.2 9.1 6.1 58 3.8 NE 22 28 12 15 1034.6 1034.6 0.0
21/08:30am 14.1 10.1 6.5 60 3.7 NE 17 24 9 13 1034.4 1034.4 0.0
21/08:00am 12.7 9.2 5.4 61 3.4 ENE 13 17 7 9 1034.3 1034.3 0.0
21/07:30am 12.5 7.5 4.7 59 3.6 NNE 20 26 11 14 1033.9 1033.9 0.0
21/07:00am 12.5 6.9 5.4 62 3.3 NE 24 28 13 15 1033.6 1033.6 0.0
21/06:30am 12.0 7.5 5.9 66 2.9 ENE 19 22 10 12 1033.5 1033.5 0.0
21/06:00am 11.8 7.0 5.7 66 2.8 ENE 20 24 11 13 1033.2 1033.2 0.0
21/05:30am 11.6 7.3 5.3 65 2.9 ENE 17 22 9 12 1033.2 1033.2 0.0
21/05:00am 11.3 6.6 5.0 65 2.8 ENE 19 24 10 13 1033.0 1033.0 0.0
21/04:30am 11.1 6.6 4.1 62 3.1 ENE 17 22 9 12 1033.2 1033.2 0.0
21/04:00am 11.0 6.5 4.2 63 3.0 ENE 17 20 9 11 1033.4 1033.4 0.0
21/03:30am 11.3 7.1 3.8 60 3.3 ENE 15 20 8 11 1033.5 1033.5 0.0
21/03:00am 11.7 6.8 4.2 60 3.3 NE 19 26 10 14 1033.9 1033.9 0.0
21/02:30am 11.7 7.1 3.7 58 3.6 ENE 17 24 9 13 1034.0 1034.0 0.0
21/02:00am 11.7 7.2 4.4 61 3.3 ENE 17 20 9 11 1034.0 1034.0 0.0
21/01:30am 11.7 7.1 3.5 57 3.6 ENE 17 24 9 13 1034.4 1034.4 0.0
21/01:00am 11.8 6.9 4.3 60 3.3 E 19 24 10 13 1034.9 1034.9 0.0
21/12:30am 11.9 7.1 4.6 61 3.3 E 19 26 10 14 1035.0 1035.0 0.0
21/12:00am 11.8 7.5 5.2 64 3.0 E 17 20 9 11 1035.2 1035.2 0.0
 
Date/Time
EDT
Temp
°C
App
Temp
°C
Dew
Point
Rel
Hum
%
Delta-T
°C
Wind Press
QNH
hPa
Press
MSL
hPa
Rain
since 9 am
mm
Dir
 
Spd
km/h
Gust
km/h
Spd
kts
Gust
kts
20/11:30pm 11.8 7.8 5.0 63 3.1 E 15 20 8 11 1035.3 1035.3 0.0
20/11:00pm 11.8 7.8 4.8 62 3.2 E 15 22 8 12 1035.4 1035.4 0.0
20/10:30pm 11.8 7.9 5.2 64 3.0 E 15 22 8 12 1035.4 1035.4 0.0
20/10:00pm 11.9 7.2 5.3 64 3.0 E 19 24 10 13 1035.4 1035.4 0.0
20/09:30pm 11.8 7.3 4.1 59 3.5 E 17 22 9 12 1035.4 1035.4 0.0
20/09:00pm 11.8 7.7 4.1 59 3.4 E 15 20 8 11 1035.3 1035.3 0.0
20/08:30pm 11.7 7.2 4.4 61 3.3 E 17 22 9 12 1034.9 1034.9 0.0
20/08:00pm 11.6 6.8 4.6 62 3.1 ESE 19 24 10 13 1034.6 1034.6 0.0
20/07:30pm 11.6 6.7 5.0 64 3.0 ESE 20 28 11 15 1034.3 1034.3 0.0
20/07:00pm 11.6 7.3 5.3 65 2.9 ESE 17 22 9 12 1034.1 1034.1 0.0
20/06:30pm 11.8 7.2 5.4 65 3.0 ESE 19 22 10 12 1033.9 1033.9 0.0
20/06:00pm 12.5 7.9 5.4 62 3.3 ESE 19 24 10 13 1033.7 1033.7 0.0
20/05:30pm 12.6 7.7 5.3 61 3.4 ESE 20 26 11 14 1033.7 1033.7 0.0
20/05:00pm 13.0 8.2 5.4 60 3.5 ESE 20 26 11 14 1033.6 1033.6 0.0
20/04:30pm 13.5 8.7 5.7 59 3.7 ESE 20 24 11 13 1033.7 1033.7 0.0
20/04:00pm 13.5 8.7 4.9 56 3.9 SE 19 26 10 14 1033.6 1033.6 0.0
20/03:30pm 13.8 9.5 5.4 57 3.9 SE 17 24 9 13 1033.9 1033.9 0.0
20/03:00pm 14.0 8.7 4.9 54 4.2 SE 22 30 12 16 1033.8 1033.8 0.0
20/02:30pm 14.4 9.5 5.2 54 4.3 SSE 20 26 11 14 1034.0 1034.0 0.0
20/02:00pm 14.5 9.6 5.3 54 4.3 SSE 20 26 11 14 1034.2 1034.2 0.0
20/01:30pm 14.8 9.6 5.6 54 4.4 SSE 22 30 12 16 1034.3 1034.3 0.0
20/01:00pm 14.5 8.4 4.8 52 4.5 SSE 26 30 14 16 1034.3 1034.3 0.0
20/12:30pm 14.7 8.6 5.0 52 4.5 S 26 33 14 18 1034.4 1034.4 0.0
20/12:00pm 14.4 7.9 4.7 52 4.5 S 28 33 15 18 1034.5 1034.5 0.0
20/11:30am 13.9 7.2 3.9 51 4.6 S 28 35 15 19 1034.3 1034.3 0.0
20/11:00am 12.9 5.4 3.3 52 4.2 SSE 32 41 17 22 1034.2 1034.2 0.0
20/10:30am 12.7 4.6 3.1 52 4.2 S 35 43 19 23 1034.0 1034.0 0.0
20/10:00am 12.2 3.2 2.6 52 4.1 S 39 46 21 25 1033.4 1033.4 0.0
20/09:30am 11.9 4.3 3.9 58 3.6 S 33 41 18 22 1033.1 1033.1 0.0
20/09:00am 10.9 3.1 3.0 58 3.4 S 33 39 18 21 1032.8 1032.8 5.2
20/08:30am 10.2 2.7 3.3 62 3.0 S 32 37 17 20 1032.6 1032.6 5.2
20/08:00am 9.1 3.0 2.7 64 2.7 SSW 24 37 13 20 1032.6 1032.6 5.2
20/07:30am 7.9 1.3 2.2 67 2.4 SW 26 32 14 17 1032.5 1032.5 5.2
20/07:00am 7.7 0.4 2.4 69 2.2 SW 30 35 16 19 1031.7 1031.7 5.2
20/06:30am 7.1 0.2 2.4 72 1.9 SSW 28 35 15 19 1030.9 1031.0 5.2
20/06:00am 6.9 0.4 2.4 73 1.8 SW 26 30 14 16 1030.4 1030.5 5.2
20/05:30am 7.2 0.6 1.9 69 2.2 SSW 26 32 14 17 1030.0 1030.1 5.2
20/05:00am 7.5 0.5 2.2 69 2.2 SSW 28 35 15 19 1029.9 1030.0 5.2
20/04:30am 7.6 -0.1 2.3 69 2.2 SSW 32 43 17 23 1029.2 1029.3 5.2
20/04:00am 8.0 0.4 2.7 69 2.2 SSW 32 39 17 21 1028.6 1028.7 5.2
20/03:30am 8.2 -0.3 3.1 70 2.2 SSW 37 44 20 24 1028.4 1028.5 5.2
20/03:00am 8.3 -0.2 3.0 69 2.2 SSW 37 43 20 23 1028.1 1028.2 5.2
20/02:30am 8.7 0.2 3.3 69 2.3 SSW 37 44 20 24 1027.4 1027.4 5.2
20/02:00am 8.8 1.3 4.2 73 2.0 SSW 33 43 18 23 1027.0 1027.0 5.2
20/01:30am 9.5 0.9 4.9 73 2.1 S 39 50 21 27 1026.7 1026.7 5.2
20/01:00am 9.4 1.1 6.1 80 1.5 S 39 46 21 25 1026.3 1026.3 5.2
20/12:30am 9.9 0.7 7.8 87 1.0 S 46 54 25 29 1025.7 1025.7 5.2
20/12:00am 10.5 1.5 8.8 89 0.8 S 46 56 25 30 1025.1 1025.1 5.2
 
Date/Time
EDT
Temp
°C
App
Temp
°C
Dew
Point
Rel
Hum
%
Delta-T
°C
Wind Press
QNH
hPa
Press
MSL
hPa
Rain
since 9 am
mm
Dir
 
Spd
km/h
Gust
km/h
Spd
kts
Gust
kts
19/11:30pm 10.5 2.5 8.9 90 0.8 S 41 50 22 27 1024.5 1024.5 5.2
19/11:00pm 10.6 3.8 9.4 92 0.6 S 35 41 19 22 1023.5 1023.5 5.2
19/10:30pm 10.4 2.5 9.3 93 0.5 S 41 54 22 29 1022.6 1022.6 5.2
19/10:00pm 10.8 3.4 9.7 93 0.6 S 39 44 21 24 1022.0 1022.0 5.2
19/09:46pm 11.4 4.2 10.5 94 0.5 S 39 44 21 24 1021.7 1021.7 5.0
19/09:30pm 11.3 7.6 10.2 93 0.6 SSE 20 26 11 14 1021.3 1021.3 4.6
19/09:00pm 11.5 6.3 10.4 93 0.6 SSE 28 33 15 18 1021.0 1021.0 3.0
19/08:30pm 11.4 5.4 10.1 92 0.7 SSE 32 41 17 22 1020.3 1020.3 2.2
19/08:00pm 12.1 5.6 10.5 90 0.8 SSE 35 41 19 22 1019.7 1019.7 0.4
19/07:30pm 12.9 7.5 10.8 87 1.1 SSE 30 37 16 20 1018.8 1018.8 0.2
19/07:00pm 13.8 8.1 11.3 85 1.3 SSE 32 37 17 20 1018.4 1018.4 0.0
19/06:30pm 14.4 11.2 11.9 85 1.3 S 20 28 11 15 1018.2 1018.2 0.0
19/06:00pm 14.9 11.6 11.7 81 1.7 SSW 20 26 11 14 1017.5 1017.5 0.0
19/05:30pm 15.8 10.2 11.4 75 2.4 SSW 32 37 17 20 1017.1 1017.1 0.0
19/05:00pm 15.9 11.0 11.3 74 2.5 SW 28 32 15 17 1016.4 1016.4 0.0
19/04:30pm 16.0 10.1 11.2 73 2.6 NW 33 46 18 25 1014.6 1014.6 0.0
19/04:00pm 16.8 11.5 11.3 70 3.0 WNW 30 41 16 22 1015.3 1015.3 0.0
19/03:30pm 17.2 12.2 12.1 72 2.8 NW 30 39 16 21 1015.0 1015.0 0.0
19/03:01pm 18.6 13.2 10.9 61 4.2 WNW 30 48 16 26 1015.2 1015.2 0.0
19/03:00pm 19.0 13.7 11.3 61 4.2 WNW 30 41 16 22 1015.2 1015.2 0.0
19/02:30pm 19.8 13.5 11.0 57 4.8 NW 35 54 19 29 1015.0 1015.0 0.0
19/02:02pm 20.7 14.4 11.1 54 5.3 NW 35 54 19 29 1015.1 1015.1 0.0
19/02:00pm 20.8 14.1 10.9 53 5.4 WNW 37 54 20 29 1015.2 1015.2 0.0
19/01:30pm 19.7 13.1 11.5 59 4.5 NW 37 50 20 27 1015.3 1015.3 0.0
19/01:00pm 19.3 13.7 12.1 63 4.0 NW 33 46 18 25 1015.6 1015.6 0.0

Other Formats:

Comma delimited format used in spreadsheet applications
http://www.bom.gov.au/fwo/IDT60801/IDT60801.94983.axf

JavaScript Object Notation format (JSON) in row-major order
http://www.bom.gov.au/fwo/IDT60801/IDT60801.94983.json